Terminal Aerodrome Forecast
Issued by NWS

Home | Current Version | Previous Version | Graphics & Text | Print | Product List | Glossary On
Versions: 1 2 3 4 5 6 7 8 9 10 11 12 13 14 15 16 17 18 19
000
FTUS43 KBIS 240500 RRA
TAFMOT
TAF
KMOT 240555Z 2406/2506 09005KT P6SM VCFG SCT020 OVC220
      TEMPO 2406/2409 4SM BR SCT004 BKN009 OVC200
     FM240900 11008KT 4SM BR BKN005 OVC200
     FM241400 10007KT 3SM -RA BR SCT007 OVC025
     FM242100 28011KT 2SM -RASN BR BKN008 OVC012
     FM242300 31022G30KT 3/4SM -SN BR OVC015=

USA.gov is the U.S. government's official web portal to all federal, state and local government web resources and services.